Terminal Aerodrome Forecast
Issued by NWS Buffalo, NY

Home | Current Version | Previous Version | Text Only | Print | Product List | Glossary On
Versions: 1 2 3 4 5 6 7 8 9 10 11 12 13 14 15 16 17 18 19 20 21 22
000
FTUS41 KBUF 222323
TAFART
TAF
KART 222323Z 2300/2324 04005KT P6SM -SHRA SCT040 BKN080
      TEMPO 2300/2301 3SM -RA BKN040
     FM230100 33009KT P6SM VCSH SCT080
     FM230300 33005KT P6SM FEW250
     FM230500 VRB03KT P6SM FEW250
     FM231300 26010KT P6SM FEW250=

USA.gov is the U.S. government's official web portal to all federal, state and local government web resources and services.